createdAt,value
2023-11-15T00:02:09.940Z,69.02
2023-11-15T00:04:38.459Z,68.73
2023-11-15T00:07:06.969Z,69.19
2023-11-15T00:09:35.319Z,68.55
2023-11-15T00:12:04.758Z,68.55
2023-11-15T00:14:33.148Z,68.66
2023-11-15T00:17:02.322Z,68.59
2023-11-15T00:19:32.430Z,68.48
2023-11-15T00:22:01.645Z,68.98
2023-11-15T00:24:30.027Z,68.52
2023-11-15T00:27:02.555Z,68.83
2023-11-15T00:29:31.230Z,68.91
2023-11-15T00:32:00.706Z,68.51
2023-11-15T00:34:29.024Z,69.05
2023-11-15T00:36:59.782Z,68.56
2023-11-15T00:39:32.424Z,68.41
2023-11-15T00:42:02.300Z,68.42
2023-11-15T00:44:30.711Z,68.49
2023-11-15T00:46:59.398Z,68.77
2023-11-15T00:49:27.750Z,69.02
2023-11-15T00:51:56.406Z,68.59
2023-11-15T00:54:25.514Z,68.71
2023-11-15T00:56:57.441Z,68.56
2023-11-15T00:59:38.614Z,68.56
2023-11-15T01:02:08.877Z,68.74
2023-11-15T01:04:38.976Z,68.84
2023-11-15T01:07:07.355Z,68.77
2023-11-15T01:09:38.092Z,68.32
2023-11-15T01:12:06.977Z,68.54
2023-11-15T01:14:36.192Z,68.36
2023-11-15T01:17:06.743Z,68.58
2023-11-15T01:19:35.701Z,68.46
2023-11-15T01:22:05.256Z,68.39
2023-11-15T01:24:34.425Z,68.52
2023-11-15T01:27:02.758Z,68.41
2023-11-15T01:29:31.205Z,68.04
2023-11-15T01:31:59.629Z,68.24
2023-11-15T01:34:28.036Z,68.41
2023-11-15T01:36:57.238Z,68.12
2023-11-15T01:39:25.644Z,68.76
2023-11-15T01:41:56.697Z,68.06
2023-11-15T01:44:25.013Z,66.81
2023-11-15T01:46:53.972Z,64.85
2023-11-15T01:49:23.358Z,63.37
2023-11-15T01:51:52.300Z,61.99
2023-11-15T01:54:22.878Z,61.50
2023-11-15T01:56:51.562Z,60.09
2023-11-15T01:59:20.448Z,59.86
2023-11-15T02:01:51.892Z,59.84
2023-11-15T02:04:21.251Z,58.77
2023-11-15T02:06:50.370Z,58.19
2023-11-15T02:09:18.823Z,57.42
2023-11-15T02:11:47.486Z,56.21
2023-11-15T02:14:17.242Z,56.46
2023-11-15T02:16:46.517Z,56.10
2023-11-15T02:19:17.551Z,55.83
2023-11-15T02:21:45.927Z,56.43
2023-11-15T02:24:14.490Z,55.73
2023-11-15T02:26:43.134Z,56.14
2023-11-15T02:29:12.741Z,56.67
2023-11-15T02:31:41.114Z,56.27
2023-11-15T02:34:09.456Z,55.21
2023-11-15T02:36:38.683Z,53.50
2023-11-15T02:39:08.517Z,53.63
2023-11-15T02:41:36.945Z,52.26
2023-11-15T02:44:06.314Z,51.87
2023-11-15T02:46:34.696Z,54.18
2023-11-15T02:49:03.107Z,55.12
2023-11-15T02:51:31.489Z,56.74
2023-11-15T02:54:00.364Z,57.53
2023-11-15T02:56:28.709Z,58.41
2023-11-15T02:58:57.064Z,59.23
2023-11-15T03:01:26.958Z,59.74
2023-11-15T03:03:56.911Z,59.69
2023-11-15T03:06:26.283Z,59.45
2023-11-15T03:08:54.885Z,59.66
2023-11-15T03:11:23.290Z,58.85
2023-11-15T03:13:51.627Z,58.54
2023-11-15T03:16:20.103Z,58.78
2023-11-15T03:18:48.483Z,58.97
2023-11-15T03:21:17.075Z,58.57
2023-11-15T03:23:45.582Z,58.68
2023-11-15T03:26:14.262Z,59.04
2023-11-15T03:28:42.625Z,58.51
2023-11-15T03:31:14.232Z,58.69
2023-11-15T03:33:45.021Z,58.79
2023-11-15T03:36:17.812Z,59.12
2023-11-15T03:38:46.238Z,59.18
2023-11-15T03:41:14.633Z,59.03
2023-11-15T03:43:43.510Z,58.91
2023-11-15T03:46:11.924Z,59.02
2023-11-15T03:48:40.707Z,58.79
2023-11-15T03:51:09.114Z,59.29
2023-11-15T03:53:38.065Z,59.37
2023-11-15T03:56:07.913Z,59.29
2023-11-15T03:58:36.964Z,58.56
2023-11-15T04:01:06.549Z,58.96
2023-11-15T04:03:35.363Z,59.10
2023-11-15T04:06:05.871Z,59.10
2023-11-15T04:08:34.285Z,59.20
2023-11-15T04:11:02.622Z,59.68
2023-11-15T04:13:31.682Z,59.68
2023-11-15T04:16:00.328Z,59.81
2023-11-15T04:18:28.854Z,59.59
2023-11-15T04:20:58.679Z,59.61
2023-11-15T04:23:27.884Z,59.41
2023-11-15T04:25:56.948Z,59.46
2023-11-15T04:28:26.211Z,59.26
2023-11-15T04:30:55.242Z,58.90
2023-11-15T04:33:23.748Z,59.27
2023-11-15T04:35:52.398Z,59.30
2023-11-15T04:38:22.784Z,58.97
2023-11-15T04:40:52.276Z,59.04
2023-11-15T04:43:20.572Z,59.02
2023-11-15T04:45:48.958Z,59.18
2023-11-15T04:48:17.731Z,58.70
2023-11-15T04:50:46.179Z,58.06
2023-11-15T04:53:14.524Z,58.26
2023-11-15T04:55:42.842Z,57.67
2023-11-15T04:58:11.300Z,57.72
2023-11-15T05:00:40.324Z,56.66
2023-11-15T05:03:08.887Z,55.93
2023-11-15T05:05:37.459Z,56.63
2023-11-15T05:08:06.055Z,55.85
2023-11-15T05:10:34.703Z,56.22
2023-11-15T05:13:02.996Z,55.50
2023-11-15T05:15:31.293Z,55.95
2023-11-15T05:18:00.464Z,55.52
2023-11-15T05:20:29.754Z,54.97
2023-11-15T05:22:58.513Z,55.15
2023-11-15T05:25:27.110Z,55.72
2023-11-15T05:27:55.461Z,55.47
2023-11-15T05:30:23.856Z,55.23
2023-11-15T05:32:52.277Z,55.23
2023-11-15T05:35:20.737Z,55.13
2023-11-15T05:37:50.257Z,54.87
2023-11-15T05:40:18.739Z,54.74
2023-11-15T05:42:47.873Z,54.80
2023-11-15T05:45:17.341Z,54.34
2023-11-15T05:47:49.463Z,54.20
2023-11-15T05:50:18.195Z,54.56
2023-11-15T05:52:46.737Z,54.71
2023-11-15T05:55:15.175Z,55.01
2023-11-15T05:57:44.684Z,54.04
2023-11-15T06:00:20.410Z,53.82
2023-11-15T06:02:49.812Z,54.38
2023-11-15T06:05:19.011Z,53.98
2023-11-15T06:07:48.371Z,54.60
2023-11-15T06:10:17.144Z,54.65
2023-11-15T06:12:46.070Z,54.06
2023-11-15T06:15:16.026Z,53.99
2023-11-15T06:17:44.680Z,54.47
2023-11-15T06:20:13.327Z,54.42
2023-11-15T06:22:42.401Z,54.38
2023-11-15T06:25:11.846Z,54.90
2023-11-15T06:27:41.237Z,55.00
2023-11-15T06:30:14.187Z,55.00
2023-11-15T06:32:42.753Z,55.08
2023-11-15T06:35:12.025Z,55.18
2023-11-15T06:37:40.610Z,55.27
2023-11-15T06:40:10.560Z,55.22
2023-11-15T06:42:39.001Z,55.27
2023-11-15T06:45:08.862Z,55.42
2023-11-15T06:47:37.300Z,55.37
2023-11-15T06:50:06.586Z,55.40
2023-11-15T06:52:35.399Z,55.47
2023-11-15T06:55:05.243Z,55.56
2023-11-15T06:57:33.907Z,55.44
2023-11-15T07:00:02.663Z,55.47
2023-11-15T07:02:33.331Z,55.68
2023-11-15T07:05:02.968Z,55.52
2023-11-15T07:07:32.072Z,55.80
2023-11-15T07:10:00.953Z,55.64
2023-11-15T07:12:31.093Z,55.64
2023-11-15T07:14:59.942Z,55.93
2023-11-15T07:17:30.173Z,55.93
2023-11-15T07:20:00.295Z,55.94
2023-11-15T07:22:28.749Z,56.39
2023-11-15T07:24:57.291Z,56.08
2023-11-15T07:27:25.917Z,56.25
2023-11-15T07:29:58.053Z,56.17
2023-11-15T07:32:27.828Z,56.13
2023-11-15T07:34:56.841Z,56.35
2023-11-15T07:37:25.194Z,56.48
2023-11-15T07:39:54.148Z,56.53
2023-11-15T07:42:22.604Z,56.62
2023-11-15T07:44:52.658Z,56.38
2023-11-15T07:47:21.065Z,56.85
2023-11-15T07:49:49.438Z,56.39
2023-11-15T07:52:17.783Z,56.09
2023-11-15T07:54:46.138Z,55.38
2023-11-15T07:57:15.799Z,54.84
2023-11-15T07:59:44.718Z,53.68
2023-11-15T08:02:14.060Z,53.91
2023-11-15T08:04:44.532Z,54.49
2023-11-15T08:07:15.585Z,54.46
2023-11-15T08:09:44.110Z,54.43
2023-11-15T08:12:13.866Z,54.47
2023-11-15T08:14:42.296Z,55.40
2023-11-15T08:17:12.853Z,55.67
2023-11-15T08:19:41.470Z,56.12
2023-11-15T08:22:09.885Z,56.56
2023-11-15T08:24:38.357Z,56.67
2023-11-15T08:27:07.660Z,56.98
2023-11-15T08:29:36.026Z,57.02
2023-11-15T08:32:05.525Z,56.84
2023-11-15T08:34:33.991Z,57.26
2023-11-15T08:37:02.307Z,57.58
2023-11-15T08:39:33.368Z,57.22
2023-11-15T08:42:02.212Z,57.40
2023-11-15T08:44:31.706Z,57.60
2023-11-15T08:47:00.114Z,57.66
2023-11-15T08:49:30.619Z,57.97
2023-11-15T08:51:59.822Z,57.94
2023-11-15T08:54:28.222Z,57.86
2023-11-15T08:56:57.049Z,57.96
2023-11-15T08:59:28.488Z,58.02
2023-11-15T09:01:58.069Z,58.11
2023-11-15T09:04:26.825Z,58.22
2023-11-15T09:06:56.645Z,58.39
2023-11-15T09:09:26.367Z,58.25
2023-11-15T09:11:58.719Z,58.25
2023-11-15T09:14:27.236Z,58.46
2023-11-15T09:16:56.411Z,58.22
2023-11-15T09:19:26.376Z,57.98
2023-11-15T09:21:54.711Z,58.17
2023-11-15T09:24:28.493Z,58.30
2023-11-15T09:27:00.894Z,58.70
2023-11-15T09:29:30.351Z,58.93
2023-11-15T09:32:03.575Z,58.91
2023-11-15T09:34:32.201Z,58.91
2023-11-15T09:37:01.515Z,58.77
2023-11-15T09:39:31.098Z,58.45
2023-11-15T09:41:59.519Z,58.86
2023-11-15T09:44:28.716Z,59.11
2023-11-15T09:46:59.719Z,59.06
2023-11-15T09:49:28.491Z,58.63
2023-11-15T09:51:58.691Z,59.15
2023-11-15T09:54:28.729Z,59.00
2023-11-15T09:56:58.790Z,59.07
2023-11-15T09:59:28.513Z,59.01
2023-11-15T10:01:59.408Z,59.06
2023-11-15T10:04:29.675Z,58.78
2023-11-15T10:07:06.864Z,58.88
2023-11-15T10:09:38.322Z,59.01
2023-11-15T10:12:11.863Z,59.19
2023-11-15T10:14:52.722Z,59.47
2023-11-15T10:17:22.453Z,59.26
2023-11-15T10:19:52.114Z,58.87
2023-11-15T10:22:20.881Z,59.11
2023-11-15T10:25:05.984Z,59.52
2023-11-15T10:27:39.893Z,59.14
2023-11-15T10:30:14.749Z,59.03
2023-11-15T10:32:43.619Z,59.49
2023-11-15T10:35:12.676Z,59.10
2023-11-15T10:37:50.711Z,59.03
2023-11-15T10:40:23.203Z,59.22
2023-11-15T10:42:53.707Z,59.07
2023-11-15T10:45:25.289Z,59.29
2023-11-15T10:47:59.447Z,59.34
2023-11-15T10:50:28.723Z,59.29
2023-11-15T10:52:57.223Z,59.25
2023-11-15T10:55:28.688Z,59.31
2023-11-15T10:58:01.876Z,59.08
2023-11-15T11:00:32.477Z,59.19
2023-11-15T11:03:01.829Z,59.17
2023-11-15T11:05:43.349Z,59.30
2023-11-15T11:08:24.189Z,59.27
2023-11-15T11:11:07.373Z,59.52
2023-11-15T11:13:35.809Z,59.50
2023-11-15T11:16:36.400Z,59.49
2023-11-15T11:19:27.785Z,59.35
2023-11-15T11:22:13.812Z,59.42
2023-11-15T11:24:50.662Z,59.51
2023-11-15T11:27:19.510Z,59.51
2023-11-15T11:29:52.944Z,59.36
2023-11-15T11:32:29.554Z,59.70
2023-11-15T11:35:06.785Z,59.31
2023-11-15T11:37:46.510Z,59.30
2023-11-15T11:40:35.327Z,59.35
2023-11-15T11:43:17.182Z,59.25
2023-11-15T11:45:46.541Z,59.44
2023-11-15T11:48:22.215Z,59.46
2023-11-15T11:50:56.953Z,59.68
2023-11-15T11:53:25.701Z,59.46
2023-11-15T11:55:58.873Z,59.38
2023-11-15T11:58:28.433Z,59.36
2023-11-15T12:01:02.471Z,59.10
2023-11-15T12:03:32.961Z,59.58
2023-11-15T12:06:09.562Z,59.68
2023-11-15T12:08:39.258Z,59.51
2023-11-15T12:11:08.938Z,59.57
2023-11-15T12:13:44.903Z,59.44
2023-11-15T12:16:17.428Z,59.49
2023-11-15T12:19:08.934Z,59.52
2023-11-15T12:21:44.572Z,59.61
2023-11-15T12:24:13.715Z,59.60
2023-11-15T12:26:46.141Z,59.44
2023-11-15T12:29:26.265Z,59.40
2023-11-15T12:31:56.948Z,59.77
2023-11-15T12:34:26.003Z,59.77
2023-11-15T12:36:54.604Z,59.80
2023-11-15T12:39:28.064Z,59.97
2023-11-15T12:42:00.243Z,59.80
2023-11-15T12:44:30.064Z,59.74
2023-11-15T12:47:02.202Z,59.96
2023-11-15T12:49:31.042Z,59.88
2023-11-15T12:52:01.210Z,60.05
2023-11-15T12:54:31.673Z,60.08
2023-11-15T12:57:05.691Z,60.03
2023-11-15T12:59:38.142Z,60.18
2023-11-15T13:02:08.561Z,60.52
2023-11-15T13:04:47.831Z,60.46
2023-11-15T13:07:17.817Z,60.74
2023-11-15T13:09:48.131Z,61.16
2023-11-15T13:12:28.865Z,60.99
2023-11-15T13:14:57.614Z,61.51
2023-11-15T13:17:29.050Z,61.77
2023-11-15T13:20:02.375Z,61.77
2023-11-15T13:22:33.583Z,62.00
2023-11-15T13:25:02.151Z,61.85
2023-11-15T13:27:31.756Z,62.15
2023-11-15T13:30:00.896Z,62.11
2023-11-15T13:32:31.680Z,61.82
2023-11-15T13:35:01.120Z,62.23
2023-11-15T13:37:30.042Z,62.46
2023-11-15T13:40:02.977Z,62.58
2023-11-15T13:42:35.951Z,62.64
2023-11-15T13:45:06.108Z,62.92
2023-11-15T13:47:34.629Z,62.97
2023-11-15T13:50:04.745Z,63.16
2023-11-15T13:52:33.176Z,63.21
2023-11-15T13:55:01.852Z,63.29
2023-11-15T13:57:33.881Z,63.43
2023-11-15T14:00:08.170Z,63.63
2023-11-15T14:02:39.846Z,63.74
2023-11-15T14:05:14.510Z,63.95
2023-11-15T14:07:44.886Z,64.14
2023-11-15T14:10:14.665Z,64.16
2023-11-15T14:12:44.220Z,64.18
2023-11-15T14:15:12.737Z,64.70
2023-11-15T14:17:41.370Z,65.23
2023-11-15T14:20:12.727Z,65.53
2023-11-15T14:22:44.363Z,65.58
2023-11-15T14:25:21.991Z,66.05
2023-11-15T14:27:56.216Z,66.35
2023-11-15T14:30:28.497Z,66.63
2023-11-15T14:32:58.178Z,67.27
2023-11-15T14:35:30.450Z,67.69
2023-11-15T14:38:04.697Z,68.14
2023-11-15T14:40:36.422Z,68.76
2023-11-15T14:43:06.847Z,68.99
2023-11-15T14:45:36.344Z,69.78
2023-11-15T14:48:05.318Z,70.06
2023-11-15T14:50:34.778Z,70.31
2023-11-15T14:53:20.309Z,70.04
2023-11-15T14:55:49.336Z,70.61
2023-11-15T14:58:20.235Z,70.63
2023-11-15T15:00:51.213Z,71.03
2023-11-15T15:03:24.509Z,71.64
2023-11-15T15:05:53.521Z,71.59
2023-11-15T15:08:23.895Z,71.79
2023-11-15T15:10:55.307Z,72.22
2023-11-15T15:13:23.826Z,72.27
2023-11-15T15:15:52.813Z,72.63
2023-11-15T15:18:29.862Z,72.55
2023-11-15T15:21:03.473Z,73.00
2023-11-15T15:23:32.392Z,72.89
2023-11-15T15:26:01.811Z,73.03
2023-11-15T15:28:30.280Z,73.15
2023-11-15T15:30:59.438Z,73.58
2023-11-15T15:33:30.511Z,73.66
2023-11-15T15:35:59.151Z,73.78
2023-11-15T15:38:28.271Z,73.87
2023-11-15T15:40:57.712Z,73.99
2023-11-15T15:43:26.584Z,74.06
2023-11-15T15:45:57.409Z,74.12
2023-11-15T15:48:26.302Z,74.97
2023-11-15T15:50:54.911Z,74.66
2023-11-15T15:53:23.755Z,75.38
2023-11-15T15:55:53.586Z,75.24
2023-11-15T15:58:23.300Z,75.28
2023-11-15T16:00:54.570Z,75.99
2023-11-15T16:03:24.520Z,75.70
2023-11-15T16:05:52.955Z,76.02
2023-11-15T16:08:21.692Z,75.65
2023-11-15T16:10:52.587Z,75.72
2023-11-15T16:13:20.932Z,76.19
2023-11-15T16:15:51.666Z,76.19
2023-11-15T16:18:20.354Z,75.97
2023-11-15T16:20:48.985Z,76.11
2023-11-15T16:23:17.409Z,76.13
2023-11-15T16:25:45.791Z,76.12
2023-11-15T16:28:14.738Z,76.18
2023-11-15T16:30:43.219Z,75.87
2023-11-15T16:33:12.238Z,76.46
2023-11-15T16:35:41.357Z,76.03
2023-11-15T16:38:10.522Z,76.51
2023-11-15T16:40:40.970Z,76.95
2023-11-15T16:43:13.253Z,76.60
2023-11-15T16:45:42.336Z,76.48
2023-11-15T16:48:11.571Z,76.63
2023-11-15T16:50:43.206Z,76.68
2023-11-15T16:53:12.043Z,76.68
2023-11-15T16:55:42.458Z,76.99
2023-11-15T16:58:13.118Z,77.15
2023-11-15T17:00:43.129Z,76.71
2023-11-15T17:03:11.943Z,76.99
2023-11-15T17:05:49.543Z,77.05
2023-11-15T17:08:18.243Z,76.62
2023-11-15T17:10:47.010Z,76.84
2023-11-15T17:13:15.593Z,77.05
2023-11-15T17:15:46.849Z,76.82
2023-11-15T17:18:22.618Z,76.57
2023-11-15T17:20:52.463Z,76.65
2023-11-15T17:23:21.456Z,76.18
2023-11-15T17:25:53.581Z,76.57
2023-11-15T17:28:21.948Z,76.42
2023-11-15T17:30:51.938Z,76.14
2023-11-15T17:33:21.106Z,76.70
2023-11-15T17:35:49.598Z,76.33
2023-11-15T17:38:18.026Z,76.25
2023-11-15T17:40:47.644Z,75.94
2023-11-15T17:43:16.123Z,76.60
2023-11-15T17:45:44.523Z,76.42
2023-11-15T17:48:13.555Z,75.94
2023-11-15T17:50:43.197Z,76.36
2023-11-15T17:53:11.683Z,76.23
2023-11-15T17:55:42.372Z,75.65
2023-11-15T17:58:11.538Z,75.82
2023-11-15T18:00:40.923Z,75.80
2023-11-15T18:03:09.945Z,75.59
2023-11-15T18:05:40.699Z,75.77
2023-11-15T18:08:12.358Z,76.06
2023-11-15T18:10:42.700Z,75.66
2023-11-15T18:13:12.725Z,75.89
2023-11-15T18:15:41.492Z,76.35
2023-11-15T18:18:11.164Z,76.05
2023-11-15T18:20:45.127Z,76.02
2023-11-15T18:23:14.647Z,76.09
2023-11-15T18:25:44.177Z,76.22
2023-11-15T18:28:12.870Z,76.35
2023-11-15T18:30:44.476Z,76.13
2023-11-15T18:33:16.538Z,75.61
2023-11-15T18:35:46.872Z,76.00
2023-11-15T18:38:15.699Z,75.52
2023-11-15T18:40:47.050Z,75.89
2023-11-15T18:43:16.497Z,76.17
2023-11-15T18:45:45.129Z,76.20
2023-11-15T18:48:14.048Z,75.79
2023-11-15T18:50:42.733Z,75.82
2023-11-15T18:53:11.278Z,76.17
2023-11-15T18:55:39.802Z,75.59
2023-11-15T18:58:08.196Z,76.17
2023-11-15T19:00:38.915Z,75.65
2023-11-15T19:03:08.148Z,76.02
2023-11-15T19:05:36.658Z,76.23
2023-11-15T19:08:05.216Z,75.67
2023-11-15T19:10:34.242Z,76.08
2023-11-15T19:13:02.750Z,76.27
2023-11-15T19:15:33.000Z,75.60
2023-11-15T19:18:02.402Z,76.22
2023-11-15T19:20:32.497Z,76.06
2023-11-15T19:23:00.821Z,76.11
2023-11-15T19:25:29.248Z,75.97
2023-11-15T19:27:57.834Z,76.05
2023-11-15T19:30:26.318Z,76.44
2023-11-15T19:32:55.503Z,76.49
2023-11-15T19:35:24.120Z,75.87
2023-11-15T19:37:53.196Z,76.32
2023-11-15T19:40:21.699Z,75.96
2023-11-15T19:42:50.857Z,75.89
2023-11-15T19:45:22.099Z,76.14
2023-11-15T19:47:51.691Z,76.55
2023-11-15T19:50:21.033Z,76.38
2023-11-15T19:52:49.893Z,75.99
2023-11-15T19:55:20.167Z,75.74
2023-11-15T19:57:50.489Z,75.70
2023-11-15T20:00:20.501Z,75.83
2023-11-15T20:02:50.959Z,76.43
2023-11-15T20:05:19.478Z,76.01
2023-11-15T20:07:48.345Z,76.42
2023-11-15T20:10:16.840Z,75.67
2023-11-15T20:12:46.989Z,76.33
2023-11-15T20:15:16.013Z,76.46
2023-11-15T20:17:46.637Z,76.15
2023-11-15T20:20:18.197Z,75.85
2023-11-15T20:22:52.166Z,75.74
2023-11-15T20:25:23.466Z,75.83
2023-11-15T20:27:52.401Z,76.40
2023-11-15T20:30:23.058Z,76.25
2023-11-15T20:32:55.602Z,76.44
2023-11-15T20:35:25.559Z,76.30
2023-11-15T20:37:53.924Z,76.28
2023-11-15T20:40:23.639Z,76.15
2023-11-15T20:42:52.032Z,76.69
2023-11-15T20:45:20.588Z,75.98
2023-11-15T20:47:49.036Z,76.57
2023-11-15T20:50:18.376Z,76.08
2023-11-15T20:52:48.918Z,76.23
2023-11-15T20:55:21.780Z,76.08
2023-11-15T20:57:50.964Z,76.28
2023-11-15T21:00:27.442Z,76.12
2023-11-15T21:02:57.742Z,76.74
2023-11-15T21:05:29.184Z,75.85
2023-11-15T21:07:57.929Z,76.30
2023-11-15T21:10:26.665Z,76.08
2023-11-15T21:12:55.220Z,76.69
2023-11-15T21:15:25.354Z,76.00
2023-11-15T21:17:54.143Z,75.91
2023-11-15T21:20:23.241Z,76.35
2023-11-15T21:22:51.674Z,76.23
2023-11-15T21:25:20.064Z,76.21
2023-11-15T21:27:48.497Z,76.16
2023-11-15T21:30:19.579Z,76.27
2023-11-15T21:32:48.825Z,75.93
2023-11-15T21:35:17.179Z,75.89
2023-11-15T21:37:47.220Z,75.97
2023-11-15T21:40:17.353Z,75.96
2023-11-15T21:42:48.925Z,75.86
2023-11-15T21:45:24.828Z,76.10
2023-11-15T21:47:53.217Z,76.32
2023-11-15T21:50:22.689Z,75.86
2023-11-15T21:52:52.248Z,76.38
2023-11-15T21:55:21.147Z,76.34
2023-11-15T21:57:49.718Z,76.38
2023-11-15T22:00:22.815Z,76.34
2023-11-15T22:02:51.904Z,76.05
2023-11-15T22:05:20.357Z,75.94
2023-11-15T22:07:51.828Z,76.28
2023-11-15T22:10:20.162Z,76.56
2023-11-15T22:12:48.522Z,76.66
2023-11-15T22:15:20.555Z,76.10
2023-11-15T22:17:49.705Z,76.55
2023-11-15T22:20:20.498Z,76.22
2023-11-15T22:22:49.107Z,76.68
2023-11-15T22:25:17.416Z,76.36
2023-11-15T22:27:46.678Z,76.11
2023-11-15T22:30:15.892Z,76.27
2023-11-15T22:32:45.855Z,76.72
2023-11-15T22:35:14.313Z,77.09
2023-11-15T22:37:43.898Z,76.87
2023-11-15T22:40:12.611Z,76.81
2023-11-15T22:42:41.051Z,77.44
2023-11-15T22:45:10.642Z,77.45
2023-11-15T22:47:39.347Z,77.01
2023-11-15T22:50:08.092Z,77.11
2023-11-15T22:52:36.625Z,77.62
2023-11-15T22:55:05.070Z,77.11
2023-11-15T22:57:33.415Z,77.33
2023-11-15T23:00:02.184Z,77.67
2023-11-15T23:02:32.935Z,77.05
2023-11-15T23:05:01.636Z,77.67
2023-11-15T23:07:31.542Z,77.82
2023-11-15T23:09:59.896Z,77.41
2023-11-15T23:12:28.336Z,77.38
2023-11-15T23:14:57.254Z,77.10
2023-11-15T23:17:27.174Z,77.88
2023-11-15T23:19:55.513Z,77.29
2023-11-15T23:22:24.854Z,78.02
2023-11-15T23:24:53.407Z,77.93
2023-11-15T23:27:22.150Z,77.92
2023-11-15T23:29:50.742Z,78.39
2023-11-15T23:32:21.672Z,78.18
2023-11-15T23:34:50.085Z,78.13
2023-11-15T23:37:18.487Z,78.05
2023-11-15T23:39:49.141Z,77.92
2023-11-15T23:42:21.854Z,77.86
2023-11-15T23:44:52.466Z,78.58
2023-11-15T23:47:21.859Z,78.63
2023-11-15T23:49:50.226Z,78.67
2023-11-15T23:52:21.814Z,78.18
2023-11-15T23:54:50.139Z,78.76
2023-11-15T23:57:19.765Z,78.88
2023-11-15T23:59:48.558Z,78.11
